EDXW

Westerland Sylt Airport

Westerland, Germany
METAR EDXW 151620Z 13010KT 9999 BKN032 M01/M03 Q1025
Observed Flight Rules
Dec-15 @ 16:20 UTC (14 hours ago) Visual Flight Rules
Wind Visibility Clouds
130° at 10 knots 10,000+ meters
  • Broken at 3,200' AGL
Temperatures Readings
Current -1°C / 30°F
Dewpoint -3°C / 27°F
Humidity 86%
Altimeter 30.27" Hg
Pressure 1025 hPa
Elevation 20
METAR EDXW 151620Z 13010KT 9999 BKN032 M01/M03 Q1025
Observed Flight Rules
Dec-15 @ 16:20 UTC
(14 hours ago)
VFR
Wind Visibility
130° at 10 knots 10,000+ meters
Clouds
  • Broken at 3,200' AGL
Temperature Dewpoint
-1°C / 30°F -3°C / 27°F
Humidity Altimeter Pressure
86% 30.27" Hg 1025 hPa